Thursday, March 21, 2019, 8:45 PM GMT
Back to Local

CYSC, Sherbrooke, Que.

Location: , , Canada Lat: 45.4
Local Time: 8:45 PM GMT (20:45 GMT) Lon: -71.883
Time Zone: GMT Elev: 557 ft

Show me the last for .
Show Decoded

2019-03-21 20:00 METAR CYSC 212000Z AUTO 19006KT 9SM BKN065 07/M02 A2994 RMK SLP148 =
2019-03-21 19:00 METAR CYSC 211900Z AUTO 21005KT 180V240 9SM OVC065 05/M03 A2997 RMK SLP159 =
2019-03-21 18:00 METAR CYSC 211800Z AUTO 21009KT 9SM OVC070 05/M04 A3000 RMK SLP169 =
2019-03-21 17:00 METAR CYSC 211700Z AUTO 21011G16KT 150V220 9SM BKN075 06/M05 A3001 RMK SLP175 =
2019-03-21 16:00 METAR CYSC 211600Z AUTO 19011G16KT 160V220 9SM CLR 06/M05 A3003 RMK SLP180 =
2019-03-21 15:00 METAR CYSC 211500Z AUTO 20012G17KT 170V240 9SM CLR 05/M05 A3005 RMK SLP187 =
2019-03-21 14:00 METAR CYSC 211400Z AUTO 20007KT 9SM CLR 04/M05 A3007 RMK SLP196 =
2019-03-21 13:00 METAR CYSC 211300Z AUTO VRB02KT 9SM CLR 01/M05 A3009 RMK SLP202 =
2019-03-21 12:00 METAR CYSC 211200Z AUTO 08003KT 060V130 9SM FEW240 M00/M05 A3009 RMK SLP203 =
2019-03-21 11:00 METAR CYSC 211100Z AUTO VRB02KT 9SM CLR M02/M06 A3009 RMK SLP202 =
2019-03-21 10:00 METAR CYSC 211000Z AUTO 07003KT 050V160 9SM CLR M01/M07 A3009 RMK SLP201 =
2019-03-21 09:00 METAR CYSC 210900Z AUTO 07003KT 9SM CLR M02/M07 A3010 RMK SLP204 =
2019-03-21 08:00 METAR CYSC 210800Z AUTO 06003KT 9SM CLR M01/M07 A3011 RMK SLP207 =
2019-03-21 07:00 METAR CYSC 210700Z AUTO 05003KT 9SM CLR M04/M07 A3012 RMK SLP212 =
2019-03-21 06:00 METAR CYSC 210600Z AUTO 08004KT 9SM CLR M03/M07 A3013 RMK SLP216 =
2019-03-21 05:00 METAR CYSC 210500Z AUTO 09002KT 9SM CLR M03/M07 A3014 RMK SLP219 =
2019-03-21 04:00 METAR CYSC 210400Z AUTO 08003KT 9SM CLR M03/M07 A3015 RMK SLP222 =
2019-03-21 03:00 METAR CYSC 210300Z AUTO VRB02KT 9SM CLR M03/M07 A3015 RMK SLP224 =
2019-03-21 02:00 METAR CYSC 210200Z AUTO 06003KT 9SM CLR M03/M06 A3016 RMK SLP228 =
2019-03-21 01:00 METAR CYSC 210100Z AUTO 10002KT 9SM CLR M01/M06 A3016 RMK SLP229 =
2019-03-21 00:00 METAR CYSC 210000Z AUTO 15004KT 9SM SCT120 SCT140 01/M07 A3015 RMK SLP226 =
2019-03-20 23:00 METAR CYSC 202300Z AUTO 17002KT 9SM CLR 02/M08 A3015 RMK SLP228 =
2019-03-20 22:00 METAR CYSC 202200Z AUTO 19006KT 170V240 9SM FEW250 06/M08 A3015 RMK SLP227 =
2019-03-20 21:00 METAR CYSC 202100Z AUTO 24008KT 200V270 9SM CLR 05/M07 A3017 RMK SLP233 =

Support USWX by starting your Amazon purchase here.